Time;durP1;ratioP1;P1;durP2;ratioP2;P2;SDS_P1;SDS_P2;PMS_P1;PMS_P2;Temp;Humidity;BMP_temperature;BMP_pressure;BME280_temperature;BME280_humidity;BME280_pressure;Samples;Min_cycle;Max_cycle;Signal;HPM_P1;HPM_P2
2023/01/19 00:00:49;;;;;;;14.40;6.67;;;2.10;85.60;;;2.37;55.04;97681.41;4958622;28;119067;-75
2023/01/19 00:03:16;;;;;;;7.67;5.20;;;2.10;85.70;;;2.36;54.95;97684.41;4957381;28;123963;-76
2023/01/19 00:05:44;;;;;;;8.40;5.70;;;2.00;85.70;;;2.33;54.85;97684.97;4963383;28;123563;-75
2023/01/19 00:08:14;;;;;;;10.47;6.33;;;2.00;85.70;;;2.31;54.90;97684.44;4960679;28;118806;-76
2023/01/19 00:10:47;;;;;;;10.57;6.27;;;1.90;85.70;;;2.28;55.09;97694.00;4966519;28;119014;-74
2023/01/19 00:13:14;;;;;;;9.70;6.27;;;1.90;85.80;;;2.24;54.96;97697.63;4969761;28;124295;-75
2023/01/19 00:15:42;;;;;;;11.30;6.77;;;1.90;85.90;;;2.21;55.13;97691.63;4966870;28;122939;-76
2023/01/19 00:18:09;;;;;;;8.83;6.33;;;1.90;86.00;;;2.21;55.17;97701.72;4962965;28;119284;-78
2023/01/19 00:20:35;;;;;;;8.73;5.87;;;1.90;86.10;;;2.24;55.15;97705.78;4960163;28;119525;-82
2023/01/19 00:23:03;;;;;;;14.47;5.60;;;1.90;86.20;;;2.21;55.33;97691.63;4968113;28;123397;-79
2023/01/19 00:25:30;;;;;;;10.63;6.10;;;1.80;86.10;;;2.19;55.38;97690.28;4965989;28;123869;-75
2023/01/19 00:27:56;;;;;;;10.47;6.30;;;1.80;86.20;;;2.19;55.31;97690.28;4944898;28;118497;-73
2023/01/19 00:30:23;;;;;;;11.03;6.77;;;1.80;86.30;;;2.17;55.23;97701.47;4963416;28;118685;-74
2023/01/19 00:32:49;;;;;;;12.77;6.67;;;1.80;86.30;;;2.16;55.36;97694.41;4961942;28;124015;-74
2023/01/19 00:35:16;;;;;;;10.67;6.30;;;1.80;86.40;;;2.17;55.64;97693.28;4961876;28;123779;-74
2023/01/19 00:37:44;;;;;;;13.50;7.40;;;1.80;86.40;;;2.16;55.35;97699.84;4947602;28;119171;-74
2023/01/19 00:40:12;;;;;;;11.30;7.20;;;2.10;86.70;;;2.16;55.57;97699.84;4965203;28;118839;-74
2023/01/19 00:42:39;;;;;;;11.60;7.10;;;1.80;86.50;;;2.18;55.51;97697.66;4959826;28;124559;-75
2023/01/19 00:45:17;;;;;;;17.33;7.50;;;1.80;86.60;;;2.21;55.33;97702.53;4961624;28;123328;-74
2023/01/19 00:47:45;;;;;;;11.60;6.37;;;1.80;86.60;;;2.19;55.50;97704.72;4964462;28;118497;-74
2023/01/19 00:50:13;;;;;;;10.67;6.67;;;1.80;86.60;;;2.18;55.39;97694.94;4959602;28;119283;-74
2023/01/19 00:52:40;;;;;;;8.40;5.90;;;1.80;86.60;;;2.19;55.51;97702.00;4958564;28;124093;-74
2023/01/19 00:55:08;;;;;;;9.37;6.10;;;1.80;86.70;;;2.20;55.47;97703.63;4964071;28;124145;-75
2023/01/19 00:57:35;;;;;;;9.37;6.37;;;1.80;86.70;;;2.22;55.67;97704.13;4982246;28;118435;-79
2023/01/19 01:00:05;;;;;;;10.70;6.80;;;1.80;86.80;;;2.24;55.21;97706.59;4965891;28;118914;-74
2023/01/19 01:02:32;;;;;;;14.20;6.60;;;1.80;86.70;;;2.23;55.66;97710.44;4963709;28;123929;-77
2023/01/19 01:05:01;;;;;;;12.00;6.60;;;1.80;86.70;;;2.21;55.51;97707.97;4963586;28;123781;-75
2023/01/19 01:07:29;;;;;;;9.03;6.10;;;1.80;86.70;;;2.21;55.39;97707.16;4956860;28;119281;-75
2023/01/19 01:09:56;;;;;;;8.23;6.10;;;1.80;86.70;;;2.19;55.68;97714.81;4959522;28;118850;-75
2023/01/19 01:12:22;;;;;;;7.67;5.30;;;1.80;86.70;;;2.16;55.28;97705.28;4961723;28;124469;-74
2023/01/19 01:14:49;;;;;;;9.70;6.07;;;1.80;86.70;;;2.18;55.49;97699.56;4960169;28;124170;-74
2023/01/19 01:17:16;;;;;;;11.07;6.20;;;1.70;86.70;;;2.19;55.90;97704.72;4981338;28;118289;-75
2023/01/19 01:19:42;;;;;;;9.37;5.50;;;1.80;86.80;;;2.21;55.32;97702.53;4947109;28;118244;-75
2023/01/19 01:22:09;;;;;;;10.03;6.57;;;1.80;86.90;;;2.20;55.54;97709.09;4951790;28;123165;-75
2023/01/19 01:24:36;;;;;;;11.93;7.17;;;1.70;86.70;;;2.15;55.49;97709.13;4958666;28;123755;-74
2023/01/19 01:27:02;;;;;;;8.30;5.97;;;1.70;86.80;;;2.14;55.95;97712.13;4960970;28;120214;-74
2023/01/19 01:29:29;;;;;;;10.43;6.57;;;1.70;86.90;;;2.13;55.62;97715.94;4964055;28;119047;-75
2023/01/19 01:31:58;;;;;;;10.17;6.17;;;1.70;87.50;;;2.13;55.55;97715.94;4962038;28;124083;-75
2023/01/19 01:34:24;;;;;;;8.90;6.40;;;1.70;86.90;;;2.12;55.86;97714.31;4961089;28;123816;-73
2023/01/19 01:36:51;;;;;;;12.30;6.53;;;1.70;86.90;;;2.09;55.71;97715.69;4960961;28;119187;-74
2023/01/19 01:39:18;;;;;;;17.33;7.47;;;1.60;86.70;;;2.07;55.85;97719.78;4959612;28;118430;-75
2023/01/19 01:41:44;;;;;;;10.30;7.13;;;1.70;86.90;;;2.01;55.26;97718.22;4965212;28;124084;-75
2023/01/19 01:44:51;;;;;;;11.40;5.87;;;1.60;86.80;;;1.95;55.77;97726.41;4957567;28;122654;-75
2023/01/19 01:47:43;;;;;;;9.40;6.20;;;1.50;86.70;;;1.86;55.97;97719.16;4965197;28;119395;-75
2023/01/19 01:50:26;;;;;;;9.60;6.33;;;1.60;86.80;;;1.80;56.21;97726.53;4961734;28;119246;-75
2023/01/19 01:53:11;;;;;;;10.03;6.30;;;1.40;86.70;;;1.75;55.93;97708.31;4957606;28;124427;-75
2023/01/19 01:55:45;;;;;;;8.40;6.03;;;1.40;86.80;;;1.75;56.11;97715.69;4961966;28;123878;-75
2023/01/19 01:58:13;;;;;;;9.50;6.10;;;1.40;86.90;;;1.76;56.42;97718.09;4966456;28;119939;-75
2023/01/19 02:03:27;;;;;;;7.73;5.57;;;1.40;87.10;;;1.87;55.84;97718.03;4971804;28;124554;-75
2023/01/19 02:05:59;;;;;;;8.73;5.27;;;1.60;87.30;;;1.92;56.28;97726.19;4967990;28;123585;-75
2023/01/19 02:14:06;;;;;;;9.70;5.53;;;1.50;87.40;;;2.00;55.93;97714.69;4969988;28;124406;-75
2023/01/19 02:16:33;;;;;;;11.53;5.90;;;1.50;87.40;;;2.03;56.28;97711.38;4968462;28;123880;-75
2023/01/19 02:19:00;;;;;;;10.60;6.20;;;1.60;87.50;;;2.06;56.23;97710.81;4968377;28;120318;-75
2023/01/19 02:21:51;;;;;;;10.63;5.93;;;1.60;87.40;;;2.11;55.73;97708.06;4967581;28;119904;-75
2023/01/19 02:24:18;;;;;;;10.50;6.10;;;1.60;87.30;;;2.08;56.16;97703.19;4948844;28;123484;-75
2023/01/19 02:26:46;;;;;;;7.93;4.83;;;1.60;87.30;;;2.10;55.98;97711.88;4967620;28;124320;-74
2023/01/19 02:29:17;;;;;;;7.43;5.70;;;1.60;87.30;;;2.13;55.66;97708.59;4967909;28;119305;-75
2023/01/19 02:31:44;;;;;;;11.07;6.30;;;1.60;87.20;;;2.13;55.65;97694.97;4967478;28;120603;-74
2023/01/19 02:34:15;;;;;;;8.07;5.80;;;1.60;87.20;;;2.13;55.70;97700.41;4965256;28;123049;-72
2023/01/19 02:36:50;;;;;;;10.43;7.20;;;1.60;87.20;;;2.10;55.38;97711.09;4953946;28;123878;-73
2023/01/19 02:39:32;;;;;;;10.53;6.13;;;1.60;87.00;;;2.04;55.65;97712.19;4964135;28;118983;-73
2023/01/19 02:42:07;;;;;;;13.83;5.43;;;1.50;87.00;;;2.05;55.61;97714.66;4979730;28;119651;-74
2023/01/19 02:44:35;;;;;;;9.60;5.80;;;1.50;87.10;;;2.02;55.90;97715.22;4966852;28;123954;-74
2023/01/19 02:47:03;;;;;;;8.47;6.00;;;1.60;87.20;;;2.02;55.81;97717.94;4967504;28;123913;-74
2023/01/19 02:49:30;;;;;;;7.60;5.20;;;1.50;87.10;;;2.02;55.45;97719.84;4956689;28;119739;-74
2023/01/19 02:51:58;;;;;;;9.03;5.33;;;1.50;87.10;;;2.03;55.57;97721.47;4969891;28;119152;-74
2023/01/19 02:54:44;;;;;;;8.80;5.27;;;1.60;87.10;;;2.05;55.74;97720.09;4967172;28;123789;-74
2023/01/19 02:57:20;;;;;;;8.00;5.40;;;1.60;87.10;;;2.04;55.40;97721.16;4962847;28;123722;-74
2023/01/19 03:00:18;;;;;;;7.30;5.00;;;1.60;87.10;;;2.03;55.54;97719.56;4966169;28;119160;-74
2023/01/19 03:02:56;;;;;;;7.83;5.77;;;1.50;87.00;;;2.03;55.80;97719.56;4962819;28;118811;-74
2023/01/19 03:05:36;;;;;;;7.67;5.73;;;1.50;87.00;;;2.03;55.62;97722.28;4966147;28;124055;-73
2023/01/19 03:08:06;;;;;;;7.20;4.80;;;1.60;87.10;;;2.03;55.68;97725.00;4964461;28;123318;-74
2023/01/19 03:11:04;;;;;;;10.70;5.70;;;1.60;87.10;;;2.08;55.67;97718.72;4961769;28;120223;-74
2023/01/19 03:14:13;;;;;;;8.03;5.40;;;1.60;87.20;;;2.08;55.45;97724.16;4965102;28;119933;-74
2023/01/19 03:16:53;;;;;;;11.30;6.43;;;1.60;87.00;;;2.04;55.72;97717.63;4927437;28;123795;-73
2023/01/19 03:19:32;;;;;;;10.07;5.30;;;1.50;86.90;;;2.02;55.37;97720.66;4928503;28;123750;-74
2023/01/19 03:22:05;;;;;;;9.90;6.50;;;1.50;86.90;;;2.02;55.71;97715.22;4927768;28;119684;-76
2023/01/19 03:24:37;;;;;;;7.70;5.40;;;1.50;86.90;;;2.04;55.71;97712.19;4925519;28;118959;-74
2023/01/19 03:27:14;;;;;;;7.00;5.03;;;1.60;87.00;;;2.06;55.44;97716.25;4911239;28;124597;-74
2023/01/19 03:29:50;;;;;;;9.10;6.00;;;1.60;86.90;;;2.06;55.62;97710.00;4895427;28;123611;-74
2023/01/19 03:32:24;;;;;;;6.60;5.07;;;1.50;86.80;;;2.07;55.32;97714.34;4909753;28;119205;-74
2023/01/19 03:34:52;;;;;;;11.53;5.63;;;1.60;86.90;;;2.07;55.62;97725.25;4909854;28;118889;-74
2023/01/19 03:37:20;;;;;;;6.83;4.53;;;1.60;87.30;;;2.08;55.72;97718.72;4925001;28;124128;-74
2023/01/19 03:39:46;;;;;;;9.20;5.00;;;1.60;86.80;;;2.08;55.12;97718.72;4924893;28;123788;-74
2023/01/19 03:42:15;;;;;;;10.90;5.53;;;1.60;86.90;;;2.09;55.06;97721.13;4927213;28;119562;-77
2023/01/19 03:44:44;;;;;;;9.20;5.63;;;1.60;86.80;;;2.10;55.72;97722.78;4907405;28;118960;-74
2023/01/19 03:47:13;;;;;;;5.00;4.30;;;1.60;86.80;;;2.12;55.56;97717.88;4909997;28;123964;-74
2023/01/19 03:49:44;;;;;;;8.20;5.90;;;1.60;86.80;;;2.15;55.41;97724.63;4924768;28;123808;-74
2023/01/19 03:52:11;;;;;;;7.80;5.20;;;1.60;86.80;;;2.14;54.87;97729.28;4921683;28;119184;-74
2023/01/19 03:54:38;;;;;;;7.30;5.13;;;1.70;86.80;;;2.13;55.38;97732.31;4959446;28;118979;-74
2023/01/19 03:57:04;;;;;;;10.50;5.57;;;1.60;86.50;;;2.09;55.29;97732.03;4952064;28;125055;-74
2023/01/19 03:59:31;;;;;;;8.27;5.00;;;1.60;86.50;;;2.09;55.27;97736.69;4947953;28;123847;-75
2023/01/19 04:01:59;;;;;;;9.57;5.30;;;1.60;86.50;;;2.08;55.10;97732.34;4940569;28;120274;-74
2023/01/19 04:04:25;;;;;;;8.63;5.03;;;1.60;86.50;;;2.10;55.37;97732.88;4950797;28;119666;-74
2023/01/19 04:06:52;;;;;;;11.30;5.57;;;2.90;87.70;;;2.06;55.08;97735.34;4946294;28;123754;-74
2023/01/19 04:09:21;;;;;;;6.50;5.50;;;1.60;86.50;;;2.04;55.42;97745.69;4937538;28;123824;-73
2023/01/19 04:11:47;;;;;;;9.50;5.67;;;1.50;86.40;;;2.02;55.21;97741.66;4944543;28;119278;-74
2023/01/19 04:14:14;;;;;;;8.43;5.10;;;1.50;86.40;;;2.01;55.46;97756.34;4946422;28;118867;-74
2023/01/19 04:16:40;;;;;;;9.00;5.77;;;1.50;86.30;;;1.95;55.14;97750.13;4949101;28;123996;-74
2023/01/19 04:19:07;;;;;;;11.07;6.07;;;1.50;86.10;;;1.86;55.25;97760.00;4947264;28;123757;-74
2023/01/19 04:21:34;;;;;;;9.13;5.70;;;1.40;86.00;;;1.77;54.86;97744.25;4947126;28;119211;-74
2023/01/19 04:24:00;;;;;;;8.83;5.37;;;1.40;86.00;;;1.69;54.96;97755.72;4946603;28;118825;-74
2023/01/19 04:26:27;;;;;;;9.70;5.87;;;1.30;86.00;;;1.66;55.36;97752.75;4947561;28;122899;-73
2023/01/19 04:28:53;;;;;;;9.77;6.00;;;1.30;86.10;;;1.64;55.60;97753.03;4944647;28;123651;-74
2023/01/19 04:31:22;;;;;;;7.30;5.17;;;1.20;86.20;;;1.65;55.13;97760.09;4958795;28;118215;-74
2023/01/19 04:33:48;;;;;;;7.53;5.83;;;1.30;86.30;;;1.63;55.78;97756.84;4949394;28;119007;-74
2023/01/19 04:36:15;;;;;;;7.67;5.83;;;1.20;86.30;;;1.67;55.88;97757.09;4940142;28;124334;-73
2023/01/19 04:38:41;;;;;;;7.90;5.10;;;1.20;86.50;;;1.67;55.55;97765.28;4943245;28;123785;-74
2023/01/19 04:41:08;;;;;;;7.40;5.50;;;1.30;86.50;;;1.66;55.56;97760.91;4947231;28;119206;-73
2023/01/19 04:43:35;;;;;;;10.93;6.10;;;1.20;86.30;;;1.63;55.26;97762.28;4935204;28;119938;-73
2023/01/19 04:46:01;;;;;;;8.87;5.57;;;1.20;86.30;;;1.63;55.95;97756.03;4958263;28;123929;-75
2023/01/19 04:48:28;;;;;;;10.20;6.03;;;1.20;86.30;;;1.60;55.47;97762.03;4965939;28;124320;-73
2023/01/19 04:50:56;;;;;;;8.13;5.50;;;1.20;86.40;;;1.59;55.71;97766.66;4969100;28;96716;-74
2023/01/19 04:53:22;;;;;;;9.13;5.83;;;1.20;86.40;;;1.57;55.61;97760.69;4966436;28;119533;-74
2023/01/19 04:55:53;;;;;;;9.17;6.20;;;1.20;86.40;;;1.53;55.82;97763.16;4965347;28;123915;-74
2023/01/19 04:58:20;;;;;;;9.30;5.80;;;1.10;86.30;;;1.48;55.14;97765.09;4967168;28;123722;-74
2023/01/19 05:00:47;;;;;;;11.73;8.10;;;1.10;86.40;;;1.46;55.53;97761.84;4959815;28;119139;-74
2023/01/19 05:03:13;;;;;;;7.90;6.00;;;1.10;86.50;;;1.40;55.58;97768.38;4969382;28;118975;-74
2023/01/19 05:05:40;;;;;;;10.77;6.87;;;1.00;86.30;;;1.38;55.61;97767.84;4965304;28;124534;-75
2023/01/19 05:08:06;;;;;;;10.50;6.30;;;1.00;86.40;;;1.39;55.76;97772.19;4967395;28;123787;-74
2023/01/19 05:10:33;;;;;;;11.27;6.00;;;1.00;86.50;;;1.40;55.87;97768.38;4958505;28;119720;-74
2023/01/19 05:12:59;;;;;;;13.60;6.20;;;1.00;86.60;;;1.42;56.22;97760.75;4968157;28;119196;-73
2023/01/19 05:15:26;;;;;;;11.03;5.93;;;1.00;86.70;;;1.45;56.22;97771.06;4964837;28;124017;-73
2023/01/19 05:17:52;;;;;;;8.13;5.80;;;1.00;86.70;;;1.48;56.14;97765.09;4974107;28;122705;-74
2023/01/19 05:20:19;;;;;;;11.43;6.47;;;1.10;86.80;;;1.45;56.10;97763.75;4965253;28;118877;-74
2023/01/19 05:22:52;;;;;;;12.63;6.90;;;1.10;86.80;;;1.49;55.44;97767.53;4958075;28;119142;-74
2023/01/19 05:25:19;;;;;;;7.87;5.87;;;1.10;86.80;;;1.46;55.86;97759.91;4963445;28;123985;-74
2023/01/19 05:27:45;;;;;;;9.07;6.33;;;1.10;86.70;;;1.47;55.73;97764.25;4964046;28;123503;-75
2023/01/19 05:30:13;;;;;;;9.00;6.30;;;1.00;86.60;;;1.47;55.81;97766.97;4971578;28;118480;-75
2023/01/19 05:32:39;;;;;;;9.73;6.80;;;1.00;86.70;;;1.47;55.83;97780.59;4974479;28;119184;-75
2023/01/19 05:35:07;;;;;;;10.93;6.57;;;2.20;87.80;;;1.47;55.72;97772.41;4974072;28;123188;-75
2023/01/19 05:37:33;;;;;;;9.53;6.57;;;1.00;86.70;;;1.45;55.85;97771.91;4958441;28;123115;-74
2023/01/19 05:39:59;;;;;;;11.70;6.90;;;1.00;86.70;;;1.42;55.79;97783.31;4968758;28;120274;-74
2023/01/19 05:42:26;;;;;;;10.77;6.10;;;1.00;86.70;;;1.41;56.01;97780.91;4970842;28;119891;-74
2023/01/19 05:44:52;;;;;;;7.97;5.60;;;1.00;86.70;;;1.43;55.96;97779.53;4967509;28;123877;-74
2023/01/19 05:47:19;;;;;;;10.40;7.10;;;1.00;86.80;;;1.46;56.21;97778.16;4968987;28;123627;-74
2023/01/19 05:49:45;;;;;;;9.90;6.30;;;1.00;86.80;;;1.49;55.63;97783.03;4966591;28;119166;-75
2023/01/19 05:52:12;;;;;;;13.33;6.80;;;1.10;87.00;;;1.52;55.91;97793.38;4965616;28;119212;-74
2023/01/19 05:54:39;;;;;;;13.10;6.40;;;1.10;87.00;;;1.54;56.04;97791.19;4967663;28;123946;-75
2023/01/19 05:57:06;;;;;;;9.43;6.53;;;1.10;87.00;;;1.56;55.70;97794.44;4968067;28;123365;-73
2023/01/19 05:59:33;;;;;;;9.53;5.97;;;1.10;87.00;;;1.57;56.07;97796.06;4965287;28;118882;-74
2023/01/19 06:01:59;;;;;;;10.17;6.43;;;1.10;87.00;;;1.59;55.76;97795.81;4958040;28;119514;-74
2023/01/19 06:04:26;;;;;;;12.30;6.53;;;1.10;87.00;;;1.60;55.74;97792.78;4966591;28;124647;-74
2023/01/19 06:06:53;;;;;;;9.20;5.90;;;1.10;87.10;;;1.63;56.02;97800.41;4968575;28;123840;-74
2023/01/19 06:09:20;;;;;;;7.80;5.70;;;1.10;87.10;;;1.65;55.90;97798.22;4968757;28;119172;-74
2023/01/19 06:11:46;;;;;;;7.83;5.70;;;1.20;87.10;;;1.67;55.96;97806.94;4967633;28;117988;-74
2023/01/19 06:14:13;;;;;;;13.63;7.10;;;1.20;87.10;;;1.70;55.73;97805.56;4971430;28;123671;-74
2023/01/19 06:16:40;;;;;;;14.43;6.50;;;1.20;87.10;;;1.69;55.69;97810.19;4968187;28;123355;-74
2023/01/19 06:19:06;;;;;;;10.83;6.97;;;1.20;87.70;;;1.68;55.55;97814.00;4967298;28;119365;-74
2023/01/19 06:21:33;;;;;;;8.03;5.20;;;1.20;87.10;;;1.67;55.91;97817.81;4969048;28;118912;-74
2023/01/19 06:24:00;;;;;;;9.10;6.20;;;1.20;87.10;;;1.68;55.90;97803.09;4961418;28;124619;-74
2023/01/19 06:26:26;;;;;;;8.13;6.80;;;1.30;87.30;;;1.69;56.22;97815.63;4967230;28;122812;-74
2023/01/19 06:28:52;;;;;;;11.60;6.20;;;1.20;87.20;;;1.70;55.92;97821.88;4967234;28;119320;-74
2023/01/19 06:31:20;;;;;;;9.10;5.63;;;1.20;87.20;;;1.69;56.05;97821.06;4954447;28;119534;-76
2023/01/19 06:33:47;;;;;;;11.40;7.13;;;1.20;87.20;;;1.67;56.33;97820.53;4961098;28;124044;-75
2023/01/19 06:36:14;;;;;;;9.00;5.57;;;1.20;87.20;;;1.69;55.87;97821.06;4950714;28;125338;-76
2023/01/19 06:38:41;;;;;;;9.57;5.63;;;1.30;87.40;;;1.72;56.56;97825.97;4971598;28;119127;-76
2023/01/19 06:41:28;;;;;;;10.47;6.40;;;1.30;88.00;;;1.76;56.31;97821.56;4951897;28;118545;-75
2023/01/19 06:43:55;;;;;;;9.67;6.23;;;1.30;88.20;;;1.74;56.10;97840.09;4907013;28;123915;-75
2023/01/19 06:46:21;;;;;;;8.40;6.07;;;1.30;87.80;;;1.72;56.17;97831.41;4891389;28;122083;-75
2023/01/19 06:48:48;;;;;;;10.70;5.80;;;1.30;87.60;;;1.69;56.17;97839.28;4906453;28;119423;-75
2023/01/19 06:51:14;;;;;;;11.93;6.03;;;1.30;87.50;;;1.67;56.00;97834.16;4872286;28;118446;-76
2023/01/19 06:53:40;;;;;;;12.20;6.30;;;1.20;87.30;;;1.65;56.14;97836.31;4900082;28;123616;-76
2023/01/19 06:56:08;;;;;;;11.27;7.03;;;1.20;87.30;;;1.63;56.13;97830.34;4894425;28;123845;-75
2023/01/19 06:58:34;;;;;;;12.50;6.67;;;1.20;87.30;;;1.61;55.99;97835.25;4875729;28;118587;-75
2023/01/19 07:01:04;;;;;;;11.70;6.10;;;1.20;87.30;;;1.59;55.93;97825.75;4902495;28;118950;-75
2023/01/19 07:03:33;;;;;;;17.97;6.20;;;1.20;87.30;;;1.57;55.86;97826.00;4906365;28;122801;-75
2023/01/19 07:06:01;;;;;;;13.20;6.13;;;1.10;87.20;;;1.57;56.21;97833.38;4893249;28;122793;-75
2023/01/19 07:08:28;;;;;;;10.60;6.00;;;1.20;87.20;;;1.57;56.34;97834.19;4908059;28;118937;-76
2023/01/19 07:11:06;;;;;;;9.73;6.13;;;1.20;87.20;;;1.64;56.36;97842.03;4901983;28;119025;-76
2023/01/19 07:13:35;;;;;;;9.20;5.60;;;1.20;87.20;;;1.63;55.96;97843.94;4906287;28;124672;-75
2023/01/19 07:16:11;;;;;;;8.10;5.90;;;1.20;87.20;;;1.68;56.14;97835.75;4905683;28;124221;-73
2023/01/19 07:18:39;;;;;;;8.67;5.77;;;1.20;87.10;;;1.66;56.08;97837.13;4891806;28;120225;-76
2023/01/19 07:21:06;;;;;;;8.93;5.80;;;1.20;87.10;;;1.67;56.09;97834.16;4928572;28;121134;-74
2023/01/19 07:23:33;;;;;;;8.13;5.83;;;1.20;87.10;;;1.68;55.98;97838.50;4966452;28;123916;-75
2023/01/19 07:26:00;;;;;;;8.47;5.97;;;1.20;87.10;;;1.69;56.05;97845.59;4956014;28;122828;-74
2023/01/19 07:28:28;;;;;;;11.27;5.63;;;1.30;87.20;;;1.73;56.21;97834.94;4954497;28;118821;-74
2023/01/19 07:30:55;;;;;;;11.10;6.53;;;1.30;87.20;;;1.75;55.82;97836.28;4965150;28;118970;-74
2023/01/19 07:33:22;;;;;;;8.20;5.30;;;1.30;87.10;;;1.76;55.80;97837.09;4957126;28;124301;-74
2023/01/19 07:35:49;;;;;;;7.73;5.57;;;1.30;87.10;;;1.77;55.75;97836.84;4956038;28;123895;-75
2023/01/19 07:38:17;;;;;;;7.70;5.20;;;1.30;87.10;;;1.79;55.73;97842.00;4964051;28;119068;-74
2023/01/19 07:40:47;;;;;;;7.93;5.93;;;1.30;87.00;;;1.82;55.66;97835.97;4964815;28;117724;-74
2023/01/19 07:43:14;;;;;;;9.60;5.90;;;1.40;87.10;;;1.84;55.81;97843.88;4966578;28;121884;-75
2023/01/19 07:45:42;;;;;;;7.47;4.70;;;1.40;87.10;;;1.87;55.87;97844.13;4965363;28;123250;-75
2023/01/19 07:48:08;;;;;;;8.37;5.17;;;1.40;87.10;;;1.92;55.66;97849.56;4967966;28;119219;-75
2023/01/19 07:50:35;;;;;;;9.70;5.70;;;1.40;87.10;;;1.93;55.76;97851.16;4966154;28;117950;-75
2023/01/19 07:53:08;;;;;;;10.90;6.13;;;1.40;87.10;;;1.97;55.40;97848.72;4966745;28;124275;-75
2023/01/19 07:55:35;;;;;;;9.77;6.80;;;1.40;87.10;;;1.94;55.34;97857.47;4984806;28;122675;-75
2023/01/19 07:58:05;;;;;;;10.30;5.33;;;1.40;86.90;;;1.92;55.54;97859.63;4959593;28;118985;-75
2023/01/19 08:00:36;;;;;;;10.60;5.20;;;1.40;86.80;;;1.86;55.32;97858.03;4951571;28;119335;-75
2023/01/19 08:03:04;;;;;;;8.77;5.07;;;1.40;86.50;;;1.85;55.42;97873.53;4950706;28;125344;-75
2023/01/19 08:05:34;;;;;;;10.17;5.33;;;1.40;86.50;;;1.85;54.84;97870.00;4945790;28;123521;-75
2023/01/19 08:08:00;;;;;;;10.60;5.83;;;1.40;86.40;;;1.81;55.00;97868.94;4946428;28;120235;-75
2023/01/19 08:10:28;;;;;;;7.63;5.37;;;1.30;86.20;;;1.77;54.94;97874.13;4954885;28;119138;-75
2023/01/19 08:12:56;;;;;;;7.43;5.10;;;1.30;86.10;;;1.74;55.22;97872.75;4949692;28;123912;-75
2023/01/19 08:15:23;;;;;;;10.17;5.30;;;1.30;86.10;;;1.75;54.75;97873.59;4936931;28;122439;-75
2023/01/19 08:18:04;;;;;;;7.47;4.70;;;1.30;86.20;;;1.78;54.98;97881.22;4963748;28;120883;-74
2023/01/19 08:20:31;;;;;;;8.10;5.30;;;1.30;86.20;;;1.74;55.08;97872.75;4961802;28;117009;-74
2023/01/19 08:23:01;;;;;;;8.80;5.07;;;1.30;86.10;;;1.75;55.00;97874.41;4956464;28;123667;-74
2023/01/19 08:25:44;;;;;;;6.63;5.17;;;1.30;86.20;;;1.82;55.00;97878.75;4951490;28;123579;-73
2023/01/19 08:28:16;;;;;;;8.50;5.33;;;1.30;86.30;;;1.87;55.14;97881.44;4956792;28;119485;-74
2023/01/19 08:30:44;;;;;;;7.80;4.73;;;1.40;86.50;;;1.95;55.51;97878.16;4951787;28;119014;-75
2023/01/19 08:33:11;;;;;;;11.60;5.50;;;1.50;86.60;;;2.02;55.33;97881.38;4953303;28;124525;-74
2023/01/19 08:35:41;;;;;;;10.70;5.00;;;1.50;86.50;;;2.10;55.35;97880.00;4952749;28;123841;-74
2023/01/19 08:38:09;;;;;;;7.27;5.10;;;1.60;86.60;;;2.18;55.01;97882.94;4962844;28;119255;-74
2023/01/19 08:40:40;;;;;;;6.90;4.90;;;1.60;86.50;;;2.24;55.24;97889.19;4964015;28;118826;-74
2023/01/19 08:43:11;;;;;;;7.47;5.13;;;1.70;86.50;;;2.30;54.85;97884.50;4956708;28;125269;-75
2023/01/19 08:45:45;;;;;;;7.27;5.43;;;1.80;86.50;;;2.36;54.62;97891.56;4959249;28;123737;-74
2023/01/19 08:48:12;;;;;;;7.00;4.77;;;1.80;86.40;;;2.40;54.81;97896.16;4952512;28;119220;-74
2023/01/19 08:50:40;;;;;;;6.20;4.00;;;1.90;86.50;;;2.47;54.42;97895.84;4955468;28;118792;-74
2023/01/19 08:53:07;;;;;;;10.90;5.90;;;1.90;86.40;;;2.52;54.83;97898.53;4967101;28;122939;-76
2023/01/19 08:55:35;;;;;;;10.00;6.00;;;2.00;86.40;;;2.56;54.42;97905.06;4964206;28;123473;-76
2023/01/19 08:58:04;;;;;;;9.77;5.90;;;2.00;86.30;;;2.61;54.47;97902.31;4955459;28;120305;-75
2023/01/19 09:00:33;;;;;;;10.60;4.83;;;2.10;86.40;;;2.66;54.71;97893.31;4973449;28;120314;-75
2023/01/19 09:03:02;;;;;;;8.97;4.30;;;2.10;86.30;;;2.73;54.53;97903.88;4958502;28;123908;-74
2023/01/19 09:05:34;;;;;;;10.70;5.33;;;2.20;86.30;;;2.79;54.14;97902.72;4955908;28;122938;-74
2023/01/19 09:08:03;;;;;;;8.53;5.43;;;2.20;86.10;;;2.80;53.86;97910.66;4966276;28;118995;-74
2023/01/19 09:10:34;;;;;;;5.53;4.00;;;2.20;85.90;;;2.82;53.85;97902.16;4948242;28;119079;-74
2023/01/19 09:13:08;;;;;;;8.57;4.70;;;2.30;85.80;;;2.83;53.94;97901.06;4949182;28;124082;-74
2023/01/19 09:15:36;;;;;;;9.17;4.80;;;2.30;85.80;;;2.82;54.12;97905.72;4952780;28;123999;-74
2023/01/19 09:18:05;;;;;;;8.10;4.50;;;2.30;85.60;;;2.87;53.86;97904.84;4953719;28;119407;-75
2023/01/19 09:20:34;;;;;;;7.80;4.77;;;2.30;85.80;;;2.94;54.06;97905.34;4957109;28;119219;-75
2023/01/19 09:23:03;;;;;;;13.13;4.63;;;2.40;85.90;;;3.02;53.83;97909.38;4942688;28;124032;-78
2023/01/19 09:25:30;;;;;;;9.50;4.70;;;2.50;86.00;;;3.12;53.91;97905.75;4957350;28;122890;-75
2023/01/19 09:27:58;;;;;;;7.93;4.53;;;2.80;86.30;;;3.19;53.93;97911.69;4959922;28;119266;-80
2023/01/19 09:30:26;;;;;;;7.37;4.50;;;2.60;86.00;;;3.21;53.41;97906.78;4960356;28;118218;-73
2023/01/19 09:32:53;;;;;;;5.53;3.70;;;2.60;85.80;;;3.25;54.19;97907.81;4958305;28;122895;-76
2023/01/19 09:35:20;;;;;;;7.70;4.20;;;2.70;85.90;;;3.27;54.04;97902.88;4971070;28;123988;-76
2023/01/19 09:38:07;;;;;;;5.90;4.13;;;2.70;85.70;;;3.34;53.32;97911.56;4958960;28;118792;-77
2023/01/19 09:40:57;;;;;;;6.80;4.40;;;2.80;85.70;;;3.34;53.43;97903.38;4958767;28;118653;-76
2023/01/19 09:43:46;;;;;;;8.07;4.53;;;2.80;85.40;;;3.31;53.03;97903.97;4953672;28;124185;-79
2023/01/19 09:46:32;;;;;;;6.73;3.80;;;2.80;85.30;;;3.28;53.65;97908.06;4959578;28;121932;-77
2023/01/19 09:49:05;;;;;;;5.87;4.43;;;2.80;85.20;;;3.27;53.55;97909.16;4957133;28;119503;-76
2023/01/19 09:51:37;;;;;;;6.20;4.67;;;2.80;85.20;;;3.34;53.40;97900.66;4935971;28;118574;-76
2023/01/19 09:54:22;;;;;;;5.27;4.00;;;2.80;85.20;;;3.39;53.48;97908.78;4955292;28;124021;-77
2023/01/19 09:56:49;;;;;;;5.93;4.03;;;2.90;85.20;;;3.39;53.84;97900.59;4937727;28;122631;-76
2023/01/19 09:59:31;;;;;;;5.83;3.57;;;2.90;85.20;;;3.47;53.10;97904.63;4961011;28;119606;-76
2023/01/19 10:02:24;;;;;;;6.53;3.73;;;2.90;85.20;;;3.54;53.18;97899.63;4953036;28;119467;-75
2023/01/19 10:05:24;;;;;;;6.57;3.80;;;3.00;85.30;;;3.66;53.11;97904.72;4959643;28;123572;-75
2023/01/19 10:08:07;;;;;;;5.87;4.17;;;3.10;85.40;;;3.71;53.57;97901.94;4962784;28;123671;-75
2023/01/19 10:10:43;;;;;;;7.37;3.87;;;4.70;86.80;;;3.77;52.80;97898.03;4960721;28;119265;-75
2023/01/19 10:13:38;;;;;;;4.30;3.30;;;3.20;85.00;;;3.83;53.01;97901.50;4953683;28;117835;-75
2023/01/19 10:16:10;;;;;;;13.50;4.60;;;3.20;85.10;;;3.83;52.77;97899.59;4955879;28;123672;-75
2023/01/19 10:18:50;;;;;;;4.87;3.50;;;3.30;84.90;;;3.84;52.80;97897.66;4965172;28;124167;-77
2023/01/19 10:21:26;;;;;;;7.63;4.73;;;3.30;84.80;;;3.89;53.24;97906.63;4987078;28;118443;-75
2023/01/19 10:24:19;;;;;;;5.50;4.20;;;3.40;84.90;;;3.94;52.30;97906.56;4967181;28;118743;-74
2023/01/19 10:27:10;;;;;;;6.30;3.80;;;3.40;84.80;;;3.95;52.65;97902.75;4967151;28;124032;-75
2023/01/19 10:29:37;;;;;;;7.97;4.07;;;3.40;84.70;;;3.96;52.41;97890.69;4964783;28;122910;-75
2023/01/19 10:32:20;;;;;;;6.27;4.20;;;3.50;84.80;;;4.04;52.75;97902.91;4954594;28;119217;-74
2023/01/19 10:34:48;;;;;;;8.07;4.20;;;3.50;84.30;;;4.02;52.13;97898.84;4955107;28;118936;-75
2023/01/19 10:37:38;;;;;;;5.23;3.90;;;3.50;84.20;;;4.03;52.28;97892.25;4960140;28;124259;-76
2023/01/19 10:40:10;;;;;;;5.47;4.20;;;3.50;84.00;;;4.03;52.49;97895.81;4945715;28;122869;-75
2023/01/19 10:42:40;;;;;;;8.20;4.20;;;3.60;84.20;;;4.03;52.23;97895.81;4962560;28;119971;-75
2023/01/19 10:45:29;;;;;;;5.30;4.07;;;3.50;84.00;;;4.06;52.09;97891.69;4943360;28;120230;-76